createdAt,value
2022-10-13T00:01:25.483Z,18.51
2022-10-13T00:03:54.694Z,18.44
2022-10-13T00:06:25.577Z,18.39
2022-10-13T00:08:54.095Z,18.34
2022-10-13T00:11:26.659Z,18.29
2022-10-13T00:13:58.434Z,18.24
2022-10-13T00:16:28.933Z,18.20
2022-10-13T00:18:57.867Z,18.19
2022-10-13T00:21:28.608Z,18.17
2022-10-13T00:23:57.440Z,18.18
2022-10-13T00:26:28.454Z,18.17
2022-10-13T00:28:57.275Z,18.19
2022-10-13T00:31:28.466Z,18.21
2022-10-13T00:33:58.683Z,18.23
2022-10-13T00:36:27.118Z,18.26
2022-10-13T00:38:55.597Z,18.28
2022-10-13T00:41:24.047Z,18.29
2022-10-13T00:44:00.253Z,18.29
2022-10-13T00:46:31.746Z,18.30
2022-10-13T00:49:04.007Z,18.30
2022-10-13T00:51:39.295Z,18.30
2022-10-13T00:54:11.016Z,18.30
2022-10-13T00:56:42.898Z,18.28
2022-10-13T00:59:23.097Z,18.24
2022-10-13T01:01:52.349Z,18.21
2022-10-13T01:04:23.539Z,18.19
2022-10-13T01:06:52.340Z,18.14
2022-10-13T01:09:20.706Z,18.12
2022-10-13T01:12:03.928Z,18.08
2022-10-13T01:14:42.614Z,18.03
2022-10-13T01:17:21.512Z,18.01
2022-10-13T01:20:32.482Z,17.96
2022-10-13T01:23:31.557Z,17.95
2022-10-13T01:26:30.012Z,17.91
2022-10-13T01:29:27.401Z,17.89
2022-10-13T01:32:05.544Z,17.92
2022-10-13T01:34:44.156Z,17.93
2022-10-13T01:37:21.421Z,17.96
2022-10-13T01:39:58.482Z,17.97
2022-10-13T01:42:37.912Z,17.99
2022-10-13T01:45:08.894Z,18.00
2022-10-13T01:47:39.907Z,17.99
2022-10-13T01:50:09.733Z,17.97
2022-10-13T01:52:40.288Z,17.95
2022-10-13T01:55:11.479Z,17.92
2022-10-13T01:57:42.582Z,17.91
2022-10-13T02:00:14.667Z,17.91
2022-10-13T02:02:56.834Z,17.91
2022-10-13T02:05:35.599Z,17.94
2022-10-13T02:08:10.948Z,17.95
2022-10-13T02:10:47.609Z,17.96
2022-10-13T02:13:20.646Z,18.01
2022-10-13T02:15:54.192Z,18.06
2022-10-13T02:18:29.306Z,18.11
2022-10-13T02:20:58.245Z,18.19
2022-10-13T02:23:27.911Z,18.24
2022-10-13T02:25:58.625Z,18.31
2022-10-13T02:28:28.204Z,18.37
2022-10-13T02:30:57.255Z,18.43
2022-10-13T02:33:27.139Z,18.49
2022-10-13T02:35:55.539Z,18.55
2022-10-13T02:38:23.960Z,18.60
2022-10-13T02:40:52.336Z,18.66
2022-10-13T02:43:20.708Z,18.72
2022-10-13T02:45:49.045Z,18.76
2022-10-13T02:48:17.360Z,18.80
2022-10-13T02:50:48.286Z,18.84
2022-10-13T02:53:16.642Z,18.89
2022-10-13T02:55:45.035Z,18.93
2022-10-13T02:58:13.416Z,18.96
2022-10-13T03:00:41.766Z,19.00
2022-10-13T03:03:11.062Z,19.05
2022-10-13T03:05:39.458Z,19.09
2022-10-13T03:08:09.270Z,19.12
2022-10-13T03:10:37.646Z,19.15
2022-10-13T03:13:05.978Z,19.17
2022-10-13T03:15:34.274Z,19.19
2022-10-13T03:18:02.610Z,19.22
2022-10-13T03:20:30.932Z,19.25
2022-10-13T03:22:59.293Z,19.26
2022-10-13T03:25:29.505Z,19.28
2022-10-13T03:27:57.859Z,19.31
2022-10-13T03:30:26.354Z,19.32
2022-10-13T03:32:54.934Z,19.34
2022-10-13T03:35:23.402Z,19.38
2022-10-13T03:37:51.800Z,19.40
2022-10-13T03:40:20.124Z,19.42
2022-10-13T03:42:49.842Z,19.44
2022-10-13T03:45:18.446Z,19.46
2022-10-13T03:47:46.845Z,19.48
2022-10-13T03:50:15.544Z,19.46
2022-10-13T03:52:43.894Z,19.45
2022-10-13T03:55:12.251Z,19.44
2022-10-13T03:57:40.588Z,19.43
2022-10-13T04:00:12.751Z,19.42
2022-10-13T04:02:41.172Z,19.44
2022-10-13T04:05:10.661Z,19.43
2022-10-13T04:07:39.027Z,19.43
2022-10-13T04:10:11.416Z,19.44
2022-10-13T04:12:40.025Z,19.44
2022-10-13T04:15:11.810Z,19.44
2022-10-13T04:17:40.184Z,19.45
2022-10-13T04:20:10.552Z,19.44
2022-10-13T04:22:39.025Z,19.42
2022-10-13T04:25:09.599Z,19.42
2022-10-13T04:27:39.504Z,19.42
2022-10-13T04:30:13.697Z,19.40
2022-10-13T04:32:42.110Z,19.42
2022-10-13T04:35:10.938Z,19.42
2022-10-13T04:37:44.839Z,19.43
2022-10-13T04:40:14.219Z,19.43
2022-10-13T04:42:42.762Z,19.44
2022-10-13T04:45:13.082Z,19.44
2022-10-13T04:47:41.504Z,19.46
2022-10-13T04:50:11.248Z,19.48
2022-10-13T04:52:39.629Z,19.49
2022-10-13T04:55:10.325Z,19.48
2022-10-13T04:57:38.795Z,19.47
2022-10-13T05:00:09.675Z,19.49
2022-10-13T05:02:39.847Z,19.50
2022-10-13T05:05:10.174Z,19.53
2022-10-13T05:07:38.540Z,19.56
2022-10-13T05:10:07.674Z,19.56
2022-10-13T05:12:36.249Z,19.56
2022-10-13T05:15:05.276Z,19.55
2022-10-13T05:17:35.543Z,19.54
2022-10-13T05:20:06.321Z,19.52
2022-10-13T05:22:34.674Z,19.52
2022-10-13T05:25:03.055Z,19.51
2022-10-13T05:27:31.397Z,19.52
2022-10-13T05:29:59.758Z,19.54
2022-10-13T05:32:28.128Z,19.54
2022-10-13T05:34:56.488Z,19.56
2022-10-13T05:37:26.369Z,19.58
2022-10-13T05:39:54.756Z,19.60
2022-10-13T05:42:23.283Z,19.62
2022-10-13T05:44:52.237Z,19.65
2022-10-13T05:47:20.604Z,19.67
2022-10-13T05:49:48.947Z,19.70
2022-10-13T05:52:17.579Z,19.71
2022-10-13T05:54:51.705Z,19.73
2022-10-13T05:57:23.447Z,19.76
2022-10-13T05:59:57.600Z,19.77
2022-10-13T06:02:31.554Z,19.79
2022-10-13T06:04:59.961Z,19.81
2022-10-13T06:07:28.355Z,19.81
2022-10-13T06:09:59.257Z,19.77
2022-10-13T06:12:27.634Z,19.74
2022-10-13T06:14:56.015Z,19.71
2022-10-13T06:17:24.449Z,19.69
2022-10-13T06:19:52.810Z,19.65
2022-10-13T06:22:22.468Z,19.65
2022-10-13T06:24:50.949Z,19.65
2022-10-13T06:27:20.684Z,19.63
2022-10-13T06:29:49.103Z,19.65
2022-10-13T06:32:17.726Z,19.66
2022-10-13T06:34:46.261Z,19.68
2022-10-13T06:37:14.602Z,19.70
2022-10-13T06:39:43.019Z,19.72
2022-10-13T06:42:11.432Z,19.73
2022-10-13T06:44:41.214Z,19.74
2022-10-13T06:47:09.979Z,19.76
2022-10-13T06:49:38.401Z,19.76
2022-10-13T06:52:07.161Z,19.78
2022-10-13T06:54:35.595Z,19.78
2022-10-13T06:57:06.764Z,19.77
2022-10-13T06:59:35.223Z,19.80
2022-10-13T07:02:05.054Z,19.83
2022-10-13T07:04:33.471Z,19.88
2022-10-13T07:07:01.841Z,19.94
2022-10-13T07:09:30.394Z,20.01
2022-10-13T07:11:58.823Z,20.08
2022-10-13T07:14:27.538Z,20.18
2022-10-13T07:16:55.954Z,20.26
2022-10-13T07:19:25.708Z,20.36
2022-10-13T07:21:54.563Z,20.42
2022-10-13T07:24:23.211Z,20.46
2022-10-13T07:26:51.634Z,20.50
2022-10-13T07:29:20.021Z,20.53
2022-10-13T07:31:48.595Z,20.57
2022-10-13T07:34:17.592Z,20.60
2022-10-13T07:36:47.348Z,20.62
2022-10-13T07:39:15.752Z,20.63
2022-10-13T07:41:47.537Z,20.60
2022-10-13T07:44:19.530Z,20.64
2022-10-13T07:46:47.947Z,20.64
2022-10-13T07:49:16.673Z,20.68
2022-10-13T07:51:46.479Z,20.69
2022-10-13T07:54:15.564Z,20.71
2022-10-13T07:56:44.019Z,20.76
2022-10-13T07:59:12.743Z,20.83
2022-10-13T08:01:41.693Z,20.89
2022-10-13T08:04:10.208Z,20.97
2022-10-13T08:09:13.592Z,20.96
2022-10-13T08:11:41.989Z,21.01
2022-10-13T08:14:13.526Z,21.06
2022-10-13T08:16:48.617Z,21.12
2022-10-13T08:19:22.722Z,21.19
2022-10-13T08:21:59.518Z,21.28
2022-10-13T08:24:30.834Z,21.35
2022-10-13T08:26:59.259Z,21.42
2022-10-13T08:29:27.778Z,21.49
2022-10-13T08:31:56.749Z,21.54
2022-10-13T08:34:26.881Z,21.56
2022-10-13T08:36:56.786Z,21.55
2022-10-13T08:39:26.014Z,21.55
2022-10-13T08:41:57.927Z,21.57
2022-10-13T08:47:43.208Z,21.67
2022-10-13T08:50:16.551Z,21.72
2022-10-13T08:52:50.814Z,21.77
2022-10-13T08:55:32.140Z,21.84
2022-10-13T08:58:04.323Z,21.94
2022-10-13T09:00:32.856Z,22.04
2022-10-13T09:03:23.077Z,22.12
2022-10-13T09:06:06.289Z,22.26
2022-10-13T09:08:45.167Z,22.34
2022-10-13T09:11:14.469Z,22.46
2022-10-13T09:13:44.338Z,22.52
2022-10-13T09:16:12.878Z,22.58
2022-10-13T09:18:41.488Z,22.64
2022-10-13T09:21:20.759Z,22.67
2022-10-13T09:23:52.215Z,22.79
2022-10-13T09:26:25.654Z,22.88
2022-10-13T09:28:55.487Z,22.98
2022-10-13T09:31:27.465Z,23.07
2022-10-13T09:34:01.311Z,23.15
2022-10-13T09:36:31.415Z,23.21
2022-10-13T09:39:14.459Z,23.14
2022-10-13T09:41:44.746Z,23.16
2022-10-13T09:44:18.957Z,23.20
2022-10-13T09:46:54.748Z,23.20
2022-10-13T09:49:38.523Z,23.20
2022-10-13T09:52:16.507Z,23.23
2022-10-13T09:54:51.209Z,23.20
2022-10-13T09:57:29.863Z,23.17
2022-10-13T10:00:14.789Z,23.19
2022-10-13T10:02:51.894Z,23.18
2022-10-13T10:05:26.309Z,23.17
2022-10-13T10:07:57.480Z,23.20
2022-10-13T10:10:35.326Z,23.24
2022-10-13T10:13:05.026Z,23.30
2022-10-13T10:15:46.103Z,23.27
2022-10-13T10:18:20.027Z,23.27
2022-10-13T10:21:01.592Z,23.23
2022-10-13T10:23:43.890Z,23.22
2022-10-13T10:26:23.697Z,23.24
2022-10-13T10:29:20.928Z,23.24
2022-10-13T10:32:16.663Z,23.14
2022-10-13T10:34:54.397Z,23.06
2022-10-13T10:37:56.359Z,22.98
2022-10-13T10:40:37.773Z,22.96
2022-10-13T10:43:44.693Z,22.95
2022-10-13T10:46:18.755Z,22.97
2022-10-13T10:48:50.993Z,22.99
2022-10-13T10:51:20.646Z,22.97
2022-10-13T10:54:03.484Z,22.91
2022-10-13T10:56:36.742Z,22.87
2022-10-13T10:59:21.542Z,22.84
2022-10-13T11:02:03.766Z,22.80
2022-10-13T11:04:43.079Z,22.73
2022-10-13T11:07:32.598Z,22.67
2022-10-13T11:10:22.150Z,22.57
2022-10-13T11:13:22.270Z,22.49
2022-10-13T11:15:51.202Z,22.54
2022-10-13T11:19:08.786Z,22.51
2022-10-13T11:22:27.465Z,22.54
2022-10-13T11:25:25.023Z,22.59
2022-10-13T11:27:53.405Z,22.62
2022-10-13T11:30:43.893Z,22.61
2022-10-13T11:33:52.411Z,22.60
2022-10-13T11:36:51.195Z,22.58
2022-10-13T11:40:12.649Z,22.56
2022-10-13T11:43:28.451Z,22.68
2022-10-13T11:46:23.214Z,22.86
2022-10-13T11:49:28.617Z,23.02
2022-10-13T11:52:41.927Z,23.13
2022-10-13T11:55:16.401Z,23.20
2022-10-13T11:57:45.073Z,23.24
2022-10-13T12:00:17.650Z,23.25
2022-10-13T12:02:51.615Z,23.27
2022-10-13T12:05:25.618Z,23.32
2022-10-13T12:07:57.972Z,23.40
2022-10-13T12:10:34.942Z,23.54
2022-10-13T12:13:05.148Z,23.70
2022-10-13T12:15:36.496Z,23.84
2022-10-13T12:18:23.145Z,24.03
2022-10-13T12:20:55.964Z,24.26
2022-10-13T12:23:24.656Z,24.47
2022-10-13T12:25:58.469Z,24.66
2022-10-13T12:28:30.935Z,24.78
2022-10-13T12:31:00.948Z,24.90
2022-10-13T12:33:32.357Z,24.94
2022-10-13T12:36:15.169Z,24.86
2022-10-13T12:38:50.610Z,24.77
2022-10-13T12:41:26.818Z,24.63
2022-10-13T12:43:56.264Z,24.56
2022-10-13T12:46:41.180Z,24.47
2022-10-13T12:49:16.553Z,24.39
2022-10-13T12:51:49.614Z,24.34
2022-10-13T12:54:26.494Z,24.27
2022-10-13T12:57:00.156Z,24.24
2022-10-13T12:59:31.594Z,24.22
2022-10-13T13:02:03.165Z,24.14
2022-10-13T13:04:44.999Z,24.03
2022-10-13T13:07:33.086Z,23.98
2022-10-13T13:10:17.816Z,23.93
2022-10-13T13:12:49.242Z,23.91
2022-10-13T13:15:37.915Z,23.85
2022-10-13T13:18:41.642Z,23.82
2022-10-13T13:21:13.486Z,23.90
2022-10-13T13:23:42.789Z,23.96
2022-10-13T13:26:17.222Z,23.98
2022-10-13T13:28:49.818Z,23.99
2022-10-13T13:31:20.884Z,23.98
2022-10-13T13:33:49.515Z,23.95
2022-10-13T13:36:21.042Z,23.95
2022-10-13T13:38:50.356Z,23.97
2022-10-13T13:41:19.165Z,23.97
2022-10-13T13:43:50.807Z,23.97
2022-10-13T13:46:23.313Z,23.95
2022-10-13T13:48:52.119Z,23.94
2022-10-13T13:51:20.672Z,23.93
2022-10-13T13:53:49.070Z,23.94
2022-10-13T13:56:20.160Z,23.95
2022-10-13T13:58:50.113Z,23.95
2022-10-13T14:01:18.593Z,23.94
2022-10-13T14:03:47.083Z,23.93
2022-10-13T14:06:20.143Z,23.91
2022-10-13T14:08:48.842Z,23.90
2022-10-13T14:11:17.389Z,23.86
2022-10-13T14:13:45.842Z,23.81
2022-10-13T14:16:18.820Z,23.74
2022-10-13T14:18:47.223Z,23.68
2022-10-13T14:21:15.829Z,23.60
2022-10-13T14:23:47.057Z,23.52
2022-10-13T14:26:15.789Z,23.44
2022-10-13T14:28:44.552Z,23.38
2022-10-13T14:31:13.574Z,23.27
2022-10-13T14:33:43.467Z,23.17
2022-10-13T14:36:12.034Z,23.09
2022-10-13T14:38:40.495Z,23.00
2022-10-13T14:41:08.869Z,22.94
2022-10-13T14:43:37.330Z,22.90
2022-10-13T14:46:07.850Z,22.84
2022-10-13T14:48:37.931Z,22.81
2022-10-13T14:51:09.384Z,22.78
2022-10-13T14:53:39.756Z,22.75
2022-10-13T14:56:20.497Z,22.69
2022-10-13T14:58:50.480Z,22.67
2022-10-13T15:01:19.464Z,22.63
2022-10-13T15:03:48.267Z,22.59
2022-10-13T15:06:21.358Z,22.52
2022-10-13T15:08:50.724Z,22.48
2022-10-13T15:11:21.805Z,22.45
2022-10-13T15:13:50.618Z,22.41
2022-10-13T15:16:21.925Z,22.30
2022-10-13T15:18:50.770Z,22.26
2022-10-13T15:21:21.359Z,22.17
2022-10-13T15:23:49.844Z,22.12
2022-10-13T15:26:20.821Z,22.03
2022-10-13T15:28:52.046Z,21.92
2022-10-13T15:31:22.691Z,21.80
2022-10-13T15:33:53.514Z,21.67
2022-10-13T15:36:25.015Z,21.55
2022-10-13T15:38:53.675Z,21.46
2022-10-13T15:41:23.704Z,21.34
2022-10-13T15:43:52.217Z,21.24
2022-10-13T15:46:24.353Z,21.14
2022-10-13T15:48:55.331Z,21.02
2022-10-13T15:51:26.989Z,20.90
2022-10-13T15:53:56.227Z,20.81
2022-10-13T15:56:24.916Z,20.70
2022-10-13T15:58:53.858Z,20.61
2022-10-13T16:01:22.337Z,20.52
2022-10-13T16:03:55.606Z,20.42
2022-10-13T16:06:26.752Z,20.35
2022-10-13T16:08:55.355Z,20.26
2022-10-13T16:11:26.204Z,20.19
2022-10-13T16:13:54.719Z,20.12
2022-10-13T16:16:23.371Z,20.05
2022-10-13T16:18:51.985Z,19.99
2022-10-13T16:21:23.912Z,19.93
2022-10-13T16:23:54.092Z,19.87
2022-10-13T16:26:22.632Z,19.83
2022-10-13T16:28:54.930Z,19.77
2022-10-13T16:31:23.381Z,19.70
2022-10-13T16:33:51.770Z,19.65
2022-10-13T16:36:21.387Z,19.60
2022-10-13T16:38:49.774Z,19.55
2022-10-13T16:41:20.041Z,19.49
2022-10-13T16:43:49.299Z,19.45
2022-10-13T16:46:20.046Z,19.41
2022-10-13T16:48:49.078Z,19.36
2022-10-13T16:51:20.562Z,19.32
2022-10-13T16:53:50.570Z,19.28
2022-10-13T16:56:22.312Z,19.25
2022-10-13T16:58:51.405Z,19.22
2022-10-13T17:01:19.928Z,19.20
2022-10-13T17:03:51.239Z,19.16
2022-10-13T17:06:22.241Z,19.14
2022-10-13T17:08:50.818Z,19.10
2022-10-13T17:11:23.292Z,19.07
2022-10-13T17:13:53.890Z,19.04
2022-10-13T17:16:22.832Z,19.00
2022-10-13T17:18:52.001Z,18.99
2022-10-13T17:21:22.180Z,18.96
2022-10-13T17:23:51.496Z,18.93
2022-10-13T17:26:23.383Z,18.91
2022-10-13T17:28:53.071Z,18.89
2022-10-13T17:31:24.660Z,18.87
2022-10-13T17:33:54.868Z,18.86
2022-10-13T17:36:26.985Z,18.84
2022-10-13T17:38:58.318Z,18.83
2022-10-13T17:41:30.506Z,18.80
2022-10-13T17:44:01.048Z,18.78
2022-10-13T17:46:38.241Z,18.76
2022-10-13T17:49:11.094Z,18.75
2022-10-13T17:51:43.451Z,18.74
2022-10-13T17:54:16.873Z,18.71
2022-10-13T17:56:49.760Z,18.68
2022-10-13T17:59:20.464Z,18.68
2022-10-13T18:01:49.136Z,18.67
2022-10-13T18:04:20.976Z,18.65
2022-10-13T18:06:50.923Z,18.64
2022-10-13T18:09:24.511Z,18.61
2022-10-13T18:11:56.543Z,18.59
2022-10-13T18:14:27.088Z,18.60
2022-10-13T18:16:56.820Z,18.59
2022-10-13T18:19:27.875Z,18.59
2022-10-13T18:21:58.364Z,18.57
2022-10-13T18:24:27.617Z,18.56
2022-10-13T18:26:58.836Z,18.56
2022-10-13T18:29:28.818Z,18.55
2022-10-13T18:31:59.737Z,18.55
2022-10-13T18:34:30.988Z,18.54
2022-10-13T18:37:02.405Z,18.53
2022-10-13T18:39:34.688Z,18.51
2022-10-13T18:42:09.282Z,18.47
2022-10-13T18:44:38.892Z,18.46
2022-10-13T18:47:09.521Z,18.43
2022-10-13T18:49:39.522Z,18.42
2022-10-13T18:52:12.280Z,18.40
2022-10-13T18:54:42.721Z,18.38
2022-10-13T18:57:14.642Z,18.36
2022-10-13T18:59:46.236Z,18.34
2022-10-13T19:02:16.977Z,18.32
2022-10-13T19:04:46.320Z,18.32
2022-10-13T19:07:14.921Z,18.32
2022-10-13T19:09:44.351Z,18.32
2022-10-13T19:12:14.951Z,18.31
2022-10-13T19:14:45.931Z,18.34
2022-10-13T19:17:15.156Z,18.36
2022-10-13T19:19:46.065Z,18.36
2022-10-13T19:22:15.550Z,18.38
2022-10-13T19:24:47.375Z,18.40
2022-10-13T19:27:20.850Z,18.39
2022-10-13T19:29:55.364Z,18.39
2022-10-13T19:32:26.246Z,18.39
2022-10-13T19:34:57.083Z,18.40
2022-10-13T19:37:28.679Z,18.40
2022-10-13T19:39:59.822Z,18.40
2022-10-13T19:42:31.132Z,18.40
2022-10-13T19:45:02.731Z,18.41
2022-10-13T19:47:33.152Z,18.42
2022-10-13T19:50:03.356Z,18.42
2022-10-13T19:52:34.892Z,18.44
2022-10-13T19:55:07.121Z,18.45
2022-10-13T19:57:38.549Z,18.47
2022-10-13T20:00:10.270Z,18.49
2022-10-13T20:02:39.540Z,18.51
2022-10-13T20:05:09.853Z,18.52
2022-10-13T20:07:38.718Z,18.52
2022-10-13T20:10:08.845Z,18.50
2022-10-13T20:12:39.290Z,18.49
2022-10-13T20:15:08.706Z,18.47
2022-10-13T20:17:37.740Z,18.44
2022-10-13T20:20:08.234Z,18.41
2022-10-13T20:22:37.627Z,18.39
2022-10-13T20:25:07.957Z,18.35
2022-10-13T20:27:39.636Z,18.34
2022-10-13T20:30:10.082Z,18.33
2022-10-13T20:32:38.732Z,18.33
2022-10-13T20:35:08.373Z,18.33
2022-10-13T20:37:36.870Z,18.34
2022-10-13T20:40:06.647Z,18.33
2022-10-13T20:42:35.033Z,18.34
2022-10-13T20:45:05.679Z,18.32
2022-10-13T20:47:34.098Z,18.32
2022-10-13T20:50:02.531Z,18.31
2022-10-13T20:52:30.951Z,18.31
2022-10-13T20:54:59.354Z,18.30
2022-10-13T20:57:27.767Z,18.29
2022-10-13T20:59:56.158Z,18.28
2022-10-13T21:02:25.912Z,18.28
2022-10-13T21:04:54.315Z,18.28
2022-10-13T21:07:23.101Z,18.27
2022-10-13T21:09:54.007Z,18.27
2022-10-13T21:12:22.633Z,18.27
2022-10-13T21:14:51.009Z,18.28
2022-10-13T21:17:19.687Z,18.28
2022-10-13T21:19:49.851Z,18.29
2022-10-13T21:22:18.258Z,18.29
2022-10-13T21:24:46.586Z,18.28
2022-10-13T21:27:14.932Z,18.27
2022-10-13T21:29:43.289Z,18.27
2022-10-13T21:32:12.008Z,18.27
2022-10-13T21:34:40.381Z,18.26
2022-10-13T21:37:10.109Z,18.24
2022-10-13T21:39:38.733Z,18.24
2022-10-13T21:42:07.205Z,18.23
2022-10-13T21:44:35.602Z,18.21
2022-10-13T21:47:04.026Z,18.21
2022-10-13T21:49:33.000Z,18.21
2022-10-13T21:52:01.405Z,18.22
2022-10-13T21:54:31.130Z,18.23
2022-10-13T21:56:59.745Z,18.24
2022-10-13T21:59:28.376Z,18.24
2022-10-13T22:01:56.714Z,18.26
2022-10-13T22:04:25.079Z,18.29
2022-10-13T22:06:53.451Z,18.31
2022-10-13T22:09:21.832Z,18.31
2022-10-13T22:11:56.219Z,18.32
2022-10-13T22:14:25.266Z,18.30
2022-10-13T22:16:55.335Z,18.27
2022-10-13T22:19:24.344Z,18.25
2022-10-13T22:21:52.919Z,18.21
2022-10-13T22:24:22.931Z,18.16
2022-10-13T22:26:53.050Z,18.11
2022-10-13T22:29:23.251Z,18.06
2022-10-13T22:31:55.900Z,18.03
2022-10-13T22:34:24.426Z,18.00
2022-10-13T22:36:54.674Z,17.96
2022-10-13T22:39:23.483Z,17.94
2022-10-13T22:41:53.197Z,17.92
2022-10-13T22:44:21.579Z,17.91
2022-10-13T22:46:50.147Z,17.93
2022-10-13T22:49:18.502Z,17.93
2022-10-13T22:51:46.870Z,17.95
2022-10-13T22:54:15.251Z,17.97
2022-10-13T22:56:43.680Z,17.97
2022-10-13T22:59:14.247Z,17.98
2022-10-13T23:01:42.670Z,17.99
2022-10-13T23:04:11.153Z,17.96
2022-10-13T23:06:39.924Z,17.95
2022-10-13T23:09:11.786Z,17.93
2022-10-13T23:11:40.205Z,17.91
2022-10-13T23:14:08.620Z,17.89
2022-10-13T23:16:38.369Z,17.88
2022-10-13T23:19:06.875Z,17.88
2022-10-13T23:21:35.268Z,17.86
2022-10-13T23:24:06.287Z,17.85
2022-10-13T23:26:35.878Z,17.84
2022-10-13T23:29:05.316Z,17.83
2022-10-13T23:31:33.759Z,17.84
2022-10-13T23:34:03.530Z,17.85
2022-10-13T23:36:33.956Z,17.85
2022-10-13T23:39:05.525Z,17.86
2022-10-13T23:41:35.217Z,17.87
2022-10-13T23:44:03.707Z,17.89
2022-10-13T23:46:32.512Z,17.90
2022-10-13T23:49:02.292Z,17.89
2022-10-13T23:51:30.708Z,17.89
2022-10-13T23:54:00.098Z,17.90
2022-10-13T23:56:28.549Z,17.90
2022-10-13T23:58:56.929Z,17.89
